createdAt,value
2018-04-25T05:29:34.340Z,22.6
2018-04-25T05:30:24.362Z,22.6
2018-04-25T05:31:14.144Z,22.6
2018-04-25T05:32:05.199Z,22.6
2018-04-25T05:32:53.439Z,22.6
2018-04-25T05:33:43.746Z,22.6
2018-04-25T05:34:34.171Z,22.6
2018-04-25T05:35:24.766Z,22.6
2018-04-25T05:36:14.267Z,22.6
2018-04-25T05:37:04.421Z,22.6
2018-04-25T05:37:54.704Z,22.6
2018-04-25T05:38:45.457Z,22.6
2018-04-25T05:39:34.049Z,22.6
2018-04-25T05:40:24.973Z,22.6
2018-04-25T05:41:15.493Z,22.6
2018-04-25T05:42:05.032Z,22.6
2018-04-25T05:42:55.615Z,22.6
2018-04-25T05:43:45.696Z,22.6
2018-04-25T05:44:34.717Z,22.6
2018-04-25T05:45:25.191Z,22.6
2018-04-25T05:46:16.395Z,22.6
2018-04-25T05:47:05.897Z,22.6
2018-04-25T05:47:55.693Z,22.7
2018-04-25T05:48:45.501Z,22.6
2018-04-25T05:49:34.739Z,22.6
2018-04-25T05:50:25.844Z,22.6
2018-04-25T05:51:15.712Z,22.6
2018-04-25T05:52:06.369Z,22.6
2018-04-25T05:52:56.377Z,22.6
2018-04-25T05:53:46.133Z,22.6
2018-04-25T05:54:36.766Z,22.6
2018-04-25T05:55:26.793Z,22.6
2018-04-25T05:56:16.076Z,22.6
2018-04-25T05:57:06.934Z,22.6
2018-04-25T05:57:57.857Z,22.6
2018-04-25T05:58:45.628Z,22.7
2018-04-25T05:59:36.895Z,22.7
2018-04-25T06:00:26.304Z,22.7
2018-04-25T06:01:17.089Z,22.7
2018-04-25T06:02:06.751Z,22.7
2018-04-25T06:02:56.825Z,22.7
2018-04-25T06:03:47.007Z,22.7
2018-04-25T06:04:37.498Z,22.7
2018-04-25T06:05:27.617Z,22.7
2018-04-25T06:06:16.621Z,22.6
2018-04-25T06:07:07.853Z,22.7
2018-04-25T06:07:57.211Z,22.7
2018-04-25T06:08:47.027Z,22.7
2018-04-25T06:09:37.336Z,22.7
2018-04-25T06:10:26.930Z,22.7
2018-04-25T06:11:16.699Z,22.7
2018-04-25T06:12:07.272Z,22.7
2018-04-25T06:12:56.865Z,22.7
2018-04-25T06:13:47.684Z,22.8
2018-04-25T06:14:36.873Z,22.7
2018-04-25T06:15:28.098Z,22.7
2018-04-25T06:16:17.645Z,22.8
2018-04-25T06:17:07.658Z,22.7
2018-04-25T06:17:57.541Z,22.7
2018-04-25T06:18:47.237Z,22.7
2018-04-25T06:19:38.504Z,22.7
2018-04-25T06:20:29.141Z,22.8
2018-04-25T06:21:17.673Z,22.7
2018-04-25T06:22:08.322Z,22.8
2018-04-25T06:22:58.783Z,22.7
2018-04-25T06:23:48.165Z,22.7
2018-04-25T06:24:38.239Z,22.7
2018-04-25T06:25:28.819Z,22.8
2018-04-25T06:26:18.684Z,22.7
2018-04-25T06:27:08.662Z,22.7
2018-04-25T06:27:57.927Z,22.7
2018-04-25T06:28:48.545Z,22.7
2018-04-25T06:29:38.375Z,22.7
2018-04-25T06:30:28.529Z,22.7
2018-04-25T06:31:19.690Z,22.7
2018-04-25T06:32:08.252Z,22.8
2018-04-25T06:32:58.853Z,22.8
2018-04-25T06:33:49.533Z,22.7
2018-04-25T06:34:38.730Z,22.8
2018-04-25T06:35:30.115Z,22.7
2018-04-25T06:36:18.343Z,22.8
2018-04-25T06:37:08.655Z,22.8
2018-04-25T06:37:59.567Z,22.8
2018-04-25T06:38:48.797Z,22.8
2018-04-25T06:39:39.552Z,22.8
2018-04-25T06:40:29.502Z,22.8
2018-04-25T06:41:19.287Z,22.8
2018-04-25T06:42:09.920Z,22.8
2018-04-25T06:42:59.395Z,22.8
2018-04-25T06:43:49.774Z,22.8
2018-04-25T06:44:40.195Z,22.8
2018-04-25T06:45:29.849Z,22.8
2018-04-25T06:46:20.224Z,22.8
2018-04-25T06:47:09.009Z,22.8
2018-04-25T06:47:59.401Z,22.8
2018-04-25T06:48:48.999Z,22.8
2018-04-25T06:49:39.966Z,22.8
2018-04-25T06:50:29.818Z,22.8
2018-04-25T06:51:19.919Z,22.8
2018-04-25T06:52:09.906Z,22.8
2018-04-25T06:53:01.036Z,22.8
2018-04-25T06:53:50.376Z,22.8
2018-04-25T06:54:39.252Z,22.8
2018-04-25T06:55:29.357Z,22.8
2018-04-25T06:56:19.453Z,22.8
2018-04-25T06:57:10.363Z,22.8
2018-04-25T06:58:00.427Z,22.8
2018-04-25T06:58:50.731Z,22.8
2018-04-25T06:59:40.780Z,22.8
2018-04-25T07:00:30.592Z,22.8
2018-04-25T07:01:20.917Z,22.8
2018-04-25T07:02:11.717Z,22.8
2018-04-25T07:03:00.993Z,22.8
2018-04-25T07:03:50.797Z,22.8
2018-04-25T07:04:40.865Z,22.8
2018-04-25T07:05:30.943Z,22.8
2018-04-25T07:06:20.422Z,22.8
2018-04-25T07:07:10.749Z,22.9
2018-04-25T07:08:03.448Z,22.8
2018-04-25T07:08:51.764Z,22.8
2018-04-25T07:09:41.806Z,22.8
2018-04-25T07:10:31.671Z,22.8
2018-04-25T07:11:21.947Z,22.8
2018-04-25T07:12:12.038Z,22.8
2018-04-25T07:13:01.651Z,22.8
2018-04-25T07:13:51.078Z,22.8
2018-04-25T07:14:41.104Z,22.8
2018-04-25T07:15:32.279Z,22.8
2018-04-25T07:16:22.018Z,22.8
2018-04-25T07:17:11.612Z,22.8
2018-04-25T07:18:02.548Z,22.8
2018-04-25T07:18:51.432Z,22.8
2018-04-25T07:19:41.020Z,22.8
2018-04-25T07:20:33.455Z,22.8
2018-04-25T07:21:22.160Z,22.8
2018-04-25T07:22:12.063Z,22.8
2018-04-25T07:23:02.631Z,22.8
2018-04-25T07:23:52.885Z,22.8
2018-04-25T07:24:42.787Z,22.8
2018-04-25T07:25:32.554Z,22.8
2018-04-25T07:26:23.194Z,22.8
2018-04-25T07:27:13.468Z,22.8
2018-04-25T07:28:01.921Z,22.9
2018-04-25T07:28:52.797Z,22.9
2018-04-25T07:29:43.834Z,22.9
2018-04-25T07:30:32.294Z,22.8
2018-04-25T07:31:24.010Z,22.8
2018-04-25T07:32:13.870Z,22.8
2018-04-25T07:33:04.108Z,22.9
2018-04-25T07:33:53.485Z,22.9
2018-04-25T07:34:42.943Z,22.9
2018-04-25T07:35:34.856Z,22.9
2018-04-25T07:36:24.386Z,22.8
2018-04-25T07:37:14.725Z,22.9
2018-04-25T07:38:04.513Z,22.9
2018-04-25T07:38:54.052Z,22.8
2018-04-25T07:39:44.793Z,22.9
2018-04-25T07:40:33.380Z,22.9
2018-04-25T07:41:25.071Z,22.9
2018-04-25T07:42:14.604Z,22.9
2018-04-25T07:43:04.964Z,22.9
2018-04-25T07:43:55.040Z,22.9
2018-04-25T07:44:45.037Z,22.9
2018-04-25T07:45:34.527Z,22.8
2018-04-25T07:46:24.907Z,22.9
2018-04-25T07:47:15.484Z,22.9
2018-04-25T07:48:04.431Z,22.9
2018-04-25T07:48:55.426Z,22.9
2018-04-25T07:49:44.935Z,22.9
2018-04-25T07:50:35.596Z,22.8
2018-04-25T07:51:25.016Z,22.9
2018-04-25T07:52:16.135Z,22.9
2018-04-25T07:53:04.972Z,22.9
2018-04-25T07:53:55.002Z,22.9
2018-04-25T07:54:45.306Z,22.9
2018-04-25T07:55:36.163Z,22.9
2018-04-25T07:56:25.208Z,22.9
2018-04-25T07:57:15.515Z,22.9
2018-04-25T07:58:04.833Z,22.9
2018-04-25T07:58:54.780Z,22.9
2018-04-25T07:59:46.227Z,22.9
2018-04-25T08:00:36.332Z,22.8
2018-04-25T08:01:26.063Z,22.9
2018-04-25T08:02:16.164Z,22.9
2018-04-25T08:03:06.284Z,22.9
2018-04-25T08:03:56.399Z,22.9
2018-04-25T08:04:45.501Z,22.9
2018-04-25T08:05:35.572Z,22.9
2018-04-25T08:06:26.165Z,22.9
2018-04-25T08:07:16.055Z,22.9
2018-04-25T08:08:06.576Z,22.9
2018-04-25T08:08:56.389Z,22.9
2018-04-25T08:09:46.548Z,22.9
2018-04-25T08:10:36.293Z,22.9
2018-04-25T08:11:26.565Z,22.9
2018-04-25T08:12:17.311Z,22.9
2018-04-25T08:13:06.707Z,22.9
2018-04-25T08:13:56.801Z,22.9
2018-04-25T08:14:47.386Z,22.9
2018-04-25T08:15:36.882Z,22.9
2018-04-25T08:16:26.997Z,22.9
2018-04-25T08:17:16.462Z,22.9
2018-04-25T08:18:08.694Z,22.9
2018-04-25T08:18:57.190Z,22.9
2018-04-25T08:19:46.926Z,22.9
2018-04-25T08:20:37.320Z,22.9
2018-04-25T08:21:27.117Z,22.9
2018-04-25T08:22:17.730Z,22.9
2018-04-25T08:23:06.645Z,22.9
2018-04-25T08:23:58.431Z,22.9
2018-04-25T08:24:47.112Z,22.9
2018-04-25T08:25:37.295Z,22.9
2018-04-25T08:26:28.335Z,22.9
2018-04-25T08:27:15.852Z,22.9
2018-04-25T08:28:07.352Z,22.9
2018-04-25T08:28:57.985Z,22.9
2018-04-25T08:29:48.387Z,22.9
2018-04-25T08:30:38.445Z,22.9
2018-04-25T08:31:28.505Z,22.9
2018-04-25T08:32:19.122Z,22.9
2018-04-25T08:33:07.754Z,22.9
2018-04-25T08:33:58.977Z,22.9
2018-04-25T08:34:48.977Z,22.9
2018-04-25T08:35:39.392Z,22.9
2018-04-25T08:36:27.664Z,22.9
2018-04-25T08:37:18.656Z,22.9
2018-04-25T08:38:09.015Z,22.9
2018-04-25T08:38:58.797Z,22.9
2018-04-25T08:39:48.292Z,22.9
2018-04-25T08:40:38.572Z,22.9
2018-04-25T08:41:28.401Z,22.9
2018-04-25T08:42:18.730Z,22.9
2018-04-25T08:43:08.900Z,22.9
2018-04-25T08:43:59.732Z,22.9
2018-04-25T08:44:50.679Z,22.9
2018-04-25T08:45:38.487Z,22.9
2018-04-25T08:46:29.666Z,22.9
2018-04-25T08:47:19.192Z,22.9
2018-04-25T08:48:09.603Z,22.9
2018-04-25T08:49:00.124Z,22.9
2018-04-25T08:49:49.623Z,22.9
2018-04-25T08:50:39.997Z,22.9
2018-04-25T08:51:29.242Z,22.9
2018-04-25T08:52:20.069Z,22.9
2018-04-25T08:53:10.287Z,22.9
2018-04-25T08:54:00.775Z,22.9
2018-04-25T08:54:50.545Z,22.9
2018-04-25T08:55:40.878Z,22.9
2018-04-25T08:56:30.785Z,22.9
2018-04-25T08:57:20.740Z,22.9
2018-04-25T08:58:10.528Z,22.9
2018-04-25T08:59:01.247Z,22.9
2018-04-25T08:59:50.911Z,22.9
2018-04-25T09:00:39.943Z,22.9
2018-04-25T09:01:30.082Z,22.9
2018-04-25T09:02:20.631Z,22.9
2018-04-25T09:03:11.585Z,22.9
2018-04-25T09:04:00.553Z,22.9
2018-04-25T09:04:50.343Z,22.9
2018-04-25T09:05:41.233Z,22.9
2018-04-25T09:06:31.820Z,22.9
2018-04-25T09:07:21.273Z,22.9
2018-04-25T09:08:10.255Z,22.8
2018-04-25T09:09:00.896Z,22.9
2018-04-25T09:09:51.223Z,22.9
2018-04-25T09:10:41.644Z,22.9
2018-04-25T09:11:31.350Z,22.9
2018-04-25T09:12:21.213Z,22.9
2018-04-25T09:13:12.482Z,22.9
2018-04-25T09:14:01.590Z,22.9
2018-04-25T09:14:51.637Z,22.9
2018-04-25T09:15:43.716Z,22.9
2018-04-25T09:16:31.447Z,22.9
2018-04-25T09:17:22.671Z,22.9
2018-04-25T09:18:11.639Z,22.9
2018-04-25T09:18:59.677Z,22.9
2018-04-25T09:19:51.546Z,22.9
2018-04-25T09:20:41.654Z,22.9
2018-04-25T09:21:33.059Z,22.9
2018-04-25T09:22:22.837Z,22.9
2018-04-25T09:23:12.671Z,22.9
2018-04-25T09:24:02.132Z,22.9
2018-04-25T09:24:52.411Z,22.9
2018-04-25T09:25:43.413Z,22.9
2018-04-25T09:26:33.153Z,22.9
2018-04-25T09:27:22.903Z,22.9
2018-04-25T09:28:12.676Z,22.9
2018-04-25T09:29:03.007Z,22.9
2018-04-25T09:29:53.501Z,22.9
2018-04-25T09:30:43.138Z,22.9
2018-04-25T09:31:33.582Z,22.9
2018-04-25T09:32:22.996Z,22.9
2018-04-25T09:33:12.799Z,22.9
2018-04-25T09:34:03.228Z,22.9
2018-04-25T09:34:53.519Z,22.9
2018-04-25T09:35:42.402Z,22.9
2018-04-25T09:36:33.316Z,22.9
2018-04-25T09:37:22.840Z,22.9
2018-04-25T09:38:13.831Z,22.9
2018-04-25T09:39:04.098Z,22.9
2018-04-25T09:39:53.873Z,22.9
2018-04-25T09:40:44.167Z,22.9
2018-04-25T09:41:33.732Z,22.9
2018-04-25T09:42:24.148Z,22.9
2018-04-25T09:43:14.387Z,22.9
2018-04-25T09:44:04.198Z,22.9
2018-04-25T09:44:53.151Z,22.9
2018-04-25T09:45:43.677Z,22.9
2018-04-25T09:46:33.875Z,22.9
2018-04-25T09:47:23.888Z,22.9
2018-04-25T09:48:14.528Z,22.9
2018-04-25T09:49:05.212Z,22.9
2018-04-25T09:49:54.439Z,22.9
2018-04-25T09:50:44.769Z,22.9
2018-04-25T09:51:34.348Z,22.9
2018-04-25T09:52:23.793Z,22.9
2018-04-25T09:53:14.742Z,22.9
2018-04-25T09:54:04.783Z,22.9
2018-04-25T09:54:55.048Z,22.9
2018-04-25T09:55:45.128Z,22.9
2018-04-25T09:56:34.928Z,22.9
2018-04-25T09:57:26.146Z,22.9
2018-04-25T09:58:14.633Z,22.9
2018-04-25T09:59:05.458Z,22.9
2018-04-25T09:59:55.861Z,22.9
2018-04-25T10:00:46.115Z,22.9
2018-04-25T10:01:35.353Z,22.9
2018-04-25T10:02:25.232Z,22.9
2018-04-25T10:03:16.302Z,22.9
2018-04-25T10:04:05.601Z,22.9
2018-04-25T10:04:55.925Z,22.9
2018-04-25T10:05:45.933Z,22.9
2018-04-25T10:06:36.287Z,22.9
2018-04-25T10:07:25.219Z,22.9
2018-04-25T10:08:16.137Z,22.9
2018-04-25T10:09:05.894Z,23
2018-04-25T10:09:56.285Z,22.9
2018-04-25T10:10:46.482Z,22.9
2018-04-25T10:11:36.092Z,22.9
2018-04-25T10:12:26.462Z,22.9
2018-04-25T10:13:17.159Z,22.9
2018-04-25T10:14:06.878Z,22.9
2018-04-25T10:14:55.787Z,22.9
2018-04-25T10:15:46.515Z,22.9
2018-04-25T10:16:36.772Z,22.9
2018-04-25T10:17:27.309Z,22.9
2018-04-25T10:18:17.429Z,22.9
2018-04-25T10:19:06.148Z,23
2018-04-25T10:19:57.589Z,22.9
2018-04-25T10:20:47.732Z,22.9
2018-04-25T10:21:37.222Z,22.9
2018-04-25T10:22:27.237Z,22.9
2018-04-25T10:23:17.721Z,22.9
2018-04-25T10:24:08.335Z,22.9
2018-04-25T10:24:56.888Z,23
2018-04-25T10:25:49.275Z,22.9
2018-04-25T10:26:37.236Z,22.9
2018-04-25T10:27:27.903Z,23
2018-04-25T10:28:17.658Z,22.9
2018-04-25T10:29:08.050Z,23
2018-04-25T10:29:58.120Z,22.9
2018-04-25T10:30:47.886Z,23
2018-04-25T10:31:38.278Z,22.9
2018-04-25T10:32:27.486Z,22.9
2018-04-25T10:33:18.061Z,22.9
2018-04-25T10:34:08.476Z,23
2018-04-25T10:34:58.024Z,22.9
2018-04-25T10:35:47.847Z,22.9
2018-04-25T10:36:38.415Z,22.9
2018-04-25T10:37:28.174Z,22.9
2018-04-25T10:38:17.141Z,22.9
2018-04-25T10:39:09.556Z,22.9
2018-04-25T10:39:58.076Z,22.9
2018-04-25T10:40:48.457Z,22.9
2018-04-25T10:41:37.671Z,22.9
2018-04-25T10:42:28.840Z,22.9
2018-04-25T10:43:18.613Z,22.9
2018-04-25T10:44:08.957Z,22.9
2018-04-25T10:44:58.762Z,23
2018-04-25T10:45:49.125Z,23
2018-04-25T10:46:38.588Z,22.9
2018-04-25T10:47:28.695Z,23
2018-04-25T10:48:19.078Z,23
2018-04-25T10:49:09.373Z,22.9
2018-04-25T10:49:58.848Z,23
2018-04-25T10:50:49.553Z,23
2018-04-25T10:51:39.911Z,23
2018-04-25T10:52:29.962Z,23
2018-04-25T10:53:18.861Z,23
2018-04-25T10:54:08.420Z,23
2018-04-25T10:54:59.857Z,23
2018-04-25T10:55:49.948Z,23
2018-04-25T10:56:39.098Z,23
2018-04-25T10:57:30.042Z,23
2018-04-25T10:58:19.818Z,23
2018-04-25T10:59:10.241Z,23
2018-04-25T10:59:59.946Z,23
2018-04-25T11:00:50.845Z,23
2018-04-25T11:01:40.329Z,23
2018-04-25T11:02:31.717Z,23
2018-04-25T11:03:20.293Z,23
2018-04-25T11:04:11.181Z,23
2018-04-25T11:05:00.403Z,23.1
2018-04-25T11:05:50.467Z,23
2018-04-25T11:06:40.765Z,23.1
2018-04-25T11:07:32.191Z,23
2018-04-25T11:08:22.102Z,23
2018-04-25T11:09:10.654Z,23.1
2018-04-25T11:10:00.777Z,23.1
2018-04-25T11:10:51.391Z,23
2018-04-25T11:11:40.122Z,23
2018-04-25T11:12:31.833Z,23
2018-04-25T11:13:20.675Z,23.1
2018-04-25T11:14:11.644Z,23
2018-04-25T11:15:01.999Z,23.1
2018-04-25T11:15:50.644Z,23.1
2018-04-25T11:16:40.161Z,23
2018-04-25T11:17:31.329Z,23
2018-04-25T11:18:21.391Z,23
2018-04-25T11:19:11.470Z,23.1
2018-04-25T11:20:02.098Z,23.1
2018-04-25T11:20:51.577Z,23.1
2018-04-25T11:21:41.975Z,23.1
2018-04-25T11:22:30.892Z,23.1
2018-04-25T11:23:22.385Z,23.1
2018-04-25T11:24:12.425Z,23
2018-04-25T11:25:02.481Z,23
2018-04-25T11:25:52.517Z,23
2018-04-25T11:26:44.074Z,23
2018-04-25T11:27:31.535Z,23.1
2018-04-25T11:28:22.464Z,23.1
2018-04-25T11:29:12.289Z,23.1
2018-04-25T11:30:02.997Z,23
2018-04-25T11:30:52.978Z,23
2018-04-25T11:31:42.727Z,23
2018-04-25T11:32:32.519Z,23.1
2018-04-25T11:33:22.399Z,23.1
2018-04-25T11:34:12.649Z,23
2018-04-25T11:35:02.784Z,23
2018-04-25T11:35:52.281Z,23
2018-04-25T11:36:42.288Z,23
2018-04-25T11:37:32.910Z,23
2018-04-25T11:38:23.314Z,23.1
2018-04-25T11:39:13.405Z,23
2018-04-25T11:40:03.696Z,23
2018-04-25T11:40:53.996Z,23
2018-04-25T11:41:43.483Z,22.9
2018-04-25T11:42:33.575Z,23
2018-04-25T11:43:24.008Z,23
2018-04-25T11:44:13.792Z,23
2018-04-25T11:45:04.457Z,23
2018-04-25T11:45:53.840Z,23
2018-04-25T11:46:43.624Z,23
2018-04-25T11:47:34.001Z,22.9
2018-04-25T11:48:24.405Z,23
2018-04-25T11:49:13.875Z,23
2018-04-25T11:50:04.488Z,23
2018-04-25T11:50:54.277Z,23
2018-04-25T11:51:43.288Z,23
2018-04-25T11:52:32.761Z,23
2018-04-25T11:53:22.277Z,23.1
2018-04-25T11:54:13.999Z,23
2018-04-25T11:55:03.827Z,23
2018-04-25T11:55:53.002Z,22.9
2018-04-25T11:56:43.889Z,23
2018-04-25T11:57:34.330Z,23
2018-04-25T11:58:23.591Z,23
2018-04-25T11:59:13.700Z,23
2018-04-25T12:00:03.917Z,23
2018-04-25T12:00:55.682Z,23
2018-04-25T12:01:45.188Z,23
2018-04-25T12:02:35.142Z,23
2018-04-25T12:03:24.687Z,23
2018-04-25T12:04:14.552Z,23
2018-04-25T12:05:05.885Z,23
2018-04-25T12:05:55.473Z,22.9
2018-04-25T12:06:45.866Z,23
2018-04-25T12:07:35.065Z,23
2018-04-25T12:08:25.956Z,23
2018-04-25T12:09:15.979Z,23
2018-04-25T12:10:05.228Z,23
2018-04-25T12:10:56.219Z,23
2018-04-25T12:11:45.922Z,23
2018-04-25T12:12:35.040Z,23
2018-04-25T12:13:25.084Z,23
2018-04-25T12:14:15.389Z,23
2018-04-25T12:15:04.517Z,23
2018-04-25T12:15:55.740Z,23
2018-04-25T12:16:44.870Z,22.9
2018-04-25T12:17:34.797Z,23
2018-04-25T12:18:25.416Z,23
2018-04-25T12:19:15.671Z,23
2018-04-25T12:20:05.765Z,23
2018-04-25T12:20:55.846Z,22.9
2018-04-25T12:21:45.403Z,23
2018-04-25T12:22:37.000Z,22.9
2018-04-25T12:23:26.557Z,22.9
2018-04-25T12:24:16.547Z,23
2018-04-25T12:25:05.759Z,22.9
2018-04-25T12:25:55.638Z,22.9
2018-04-25T12:26:46.658Z,22.9
2018-04-25T12:27:36.263Z,22.9
2018-04-25T12:28:27.114Z,22.9
2018-04-25T12:29:15.713Z,22.9
2018-04-25T12:30:06.529Z,22.9
2018-04-25T12:30:56.390Z,22.9
2018-04-25T12:31:46.713Z,22.9
2018-04-25T12:32:35.850Z,22.9
2018-04-25T12:33:26.588Z,22.9
2018-04-25T12:34:16.996Z,22.9
2018-04-25T12:35:06.685Z,23
2018-04-25T12:35:57.015Z,22.9
2018-04-25T12:36:46.748Z,22.9
2018-04-25T12:37:37.058Z,22.9
2018-04-25T12:38:27.314Z,22.9
2018-04-25T12:39:15.830Z,22.9
2018-04-25T12:40:06.607Z,22.9
2018-04-25T12:40:56.699Z,22.9
2018-04-25T12:41:48.790Z,23
2018-04-25T12:42:38.097Z,22.9
2018-04-25T12:43:27.597Z,22.9
2018-04-25T12:44:19.088Z,22.9
2018-04-25T12:45:08.298Z,22.9
2018-04-25T12:45:57.800Z,22.9
2018-04-25T12:46:48.692Z,23
2018-04-25T12:47:38.224Z,22.9
2018-04-25T12:48:28.822Z,22.9
2018-04-25T12:49:19.481Z,22.9
2018-04-25T12:50:08.699Z,22.9
2018-04-25T12:50:58.747Z,22.9
2018-04-25T12:51:48.872Z,23
2018-04-25T12:52:38.585Z,22.9
2018-04-25T12:53:29.746Z,22.9
2018-04-25T12:54:19.305Z,22.9
2018-04-25T12:55:09.989Z,22.9
2018-04-25T12:55:59.719Z,22.9
2018-04-25T12:56:48.918Z,23.1
2018-04-25T12:57:39.331Z,23.1
2018-04-25T12:58:29.395Z,22.9
2018-04-25T12:59:19.493Z,23
2018-04-25T13:00:08.407Z,23
2018-04-25T13:01:00.473Z,22.9
2018-04-25T13:01:51.188Z,22.9
2018-04-25T13:02:40.243Z,22.9
2018-04-25T13:03:29.731Z,23
2018-04-25T13:04:19.437Z,23
2018-04-25T13:05:10.478Z,22.9
2018-04-25T13:06:00.842Z,22.9
2018-04-25T13:06:50.659Z,22.9
2018-04-25T13:07:40.690Z,23
2018-04-25T13:08:30.248Z,22.9
2018-04-25T13:09:20.970Z,22.9
2018-04-25T13:10:10.543Z,22.9
2018-04-25T13:11:00.980Z,22.9
2018-04-25T13:11:50.446Z,22.9
2018-04-25T13:12:40.990Z,22.9
2018-04-25T13:13:30.800Z,22.9
2018-04-25T13:14:20.883Z,23
2018-04-25T13:15:11.463Z,22.9
2018-04-25T13:16:00.596Z,23
2018-04-25T13:16:51.089Z,23
2018-04-25T13:17:40.210Z,23
2018-04-25T13:18:31.761Z,22.9
2018-04-25T13:19:21.595Z,22.9
2018-04-25T13:20:11.355Z,22.9
2018-04-25T13:21:01.132Z,22.9
2018-04-25T13:21:50.135Z,22.9
2018-04-25T13:22:41.866Z,22.9
2018-04-25T13:23:31.090Z,22.9
2018-04-25T13:24:21.087Z,23
2018-04-25T13:25:11.217Z,22.9
2018-04-25T13:26:01.862Z,23
2018-04-25T13:26:51.687Z,23
2018-04-25T13:27:42.317Z,22.9
2018-04-25T13:28:32.297Z,23
2018-04-25T13:29:21.940Z,22.9
2018-04-25T13:30:12.508Z,23
2018-04-25T13:31:01.702Z,23
2018-04-25T13:31:52.635Z,23
2018-04-25T13:32:42.057Z,23
2018-04-25T13:33:31.871Z,23
2018-04-25T13:34:20.786Z,23
2018-04-25T13:35:12.806Z,23
2018-04-25T13:36:02.360Z,22.9
2018-04-25T13:36:52.516Z,22.9
2018-04-25T13:37:42.532Z,23
2018-04-25T13:38:32.016Z,23
2018-04-25T13:39:22.334Z,23
2018-04-25T13:40:12.668Z,23
2018-04-25T13:41:03.300Z,23
2018-04-25T13:41:52.801Z,23
2018-04-25T13:42:42.675Z,23
2018-04-25T13:43:33.006Z,23
2018-04-25T13:44:23.504Z,23
2018-04-25T13:45:13.608Z,23
2018-04-25T13:46:03.348Z,23
2018-04-25T13:46:54.579Z,23
2018-04-25T13:47:43.273Z,23
2018-04-25T13:48:33.679Z,23
2018-04-25T13:49:24.145Z,23
2018-04-25T13:50:13.667Z,23
2018-04-25T13:51:02.420Z,23.1
2018-04-25T13:51:53.832Z,23.1
2018-04-25T13:52:45.173Z,23
2018-04-25T13:53:34.238Z,23.1
2018-04-25T13:54:23.564Z,23.1
2018-04-25T13:55:14.319Z,23.1
2018-04-25T13:56:03.854Z,23.1
2018-04-25T13:56:54.282Z,23
2018-04-25T13:57:44.045Z,23.1
2018-04-25T13:58:34.923Z,23.1
2018-04-25T13:59:25.023Z,23.1
2018-04-25T14:00:14.013Z,23.1
2018-04-25T14:01:04.743Z,23.1
2018-04-25T14:01:54.390Z,23.1
2018-04-25T14:02:43.843Z,23.1
2018-04-25T14:03:33.635Z,23.1
2018-04-25T14:04:24.093Z,23.1
2018-04-25T14:05:15.195Z,23.1
2018-04-25T14:06:05.777Z,23.1
2018-04-25T14:06:54.797Z,23.1
2018-04-25T14:07:44.572Z,23.1
2018-04-25T14:08:35.142Z,23.1
2018-04-25T14:09:25.605Z,23.1
2018-04-25T14:10:15.304Z,23.1
2018-04-25T14:11:05.329Z,23.1
2018-04-25T14:11:55.546Z,23.1
2018-04-25T14:12:45.465Z,23.1
2018-04-25T14:13:36.119Z,23.1
2018-04-25T14:14:25.139Z,23.1
2018-04-25T14:15:15.999Z,23.1
2018-04-25T14:16:05.613Z,23.1
2018-04-25T14:16:55.551Z,23.1
2018-04-25T14:17:44.503Z,23.1
2018-04-25T14:18:35.973Z,23.1
2018-04-25T14:19:25.728Z,23.2
2018-04-25T14:20:15.790Z,23.2
2018-04-25T14:21:06.090Z,23.2
2018-04-25T14:21:55.658Z,23.2
2018-04-25T14:22:45.727Z,23.2
2018-04-25T14:23:36.585Z,23.2
2018-04-25T14:24:27.001Z,23.2
2018-04-25T14:25:16.180Z,23.2
2018-04-25T14:26:06.518Z,23.2
2018-04-25T14:26:56.503Z,23.2
2018-04-25T14:27:46.896Z,23.2
2018-04-25T14:28:36.259Z,23.2
2018-04-25T14:29:26.777Z,23.2
2018-04-25T14:30:18.270Z,23.2
2018-04-25T14:31:07.135Z,23.3
2018-04-25T14:31:56.987Z,23.3
2018-04-25T14:32:47.301Z,23.3
2018-04-25T14:33:36.801Z,23.3
2018-04-25T14:34:27.220Z,23.3
2018-04-25T14:35:17.183Z,23.3
2018-04-25T14:36:07.572Z,23.3
2018-04-25T14:36:56.527Z,23.3
2018-04-25T14:37:47.089Z,23.3
2018-04-25T14:38:37.513Z,23.3
2018-04-25T14:39:27.847Z,23.3
2018-04-25T14:40:17.629Z,23.3
2018-04-25T14:41:07.886Z,23.3
2018-04-25T14:41:57.263Z,23.3
2018-04-25T14:42:46.800Z,23.3
2018-04-25T14:43:37.117Z,23.3
2018-04-25T14:44:28.259Z,23.3
2018-04-25T14:45:17.826Z,23.3
2018-04-25T14:46:07.856Z,23.3
2018-04-25T14:46:57.858Z,23.3
2018-04-25T14:47:46.895Z,23.3
2018-04-25T14:48:39.785Z,23.3
2018-04-25T14:49:26.673Z,23.3
2018-04-25T14:50:17.571Z,23.3
2018-04-25T14:51:08.027Z,23.3
2018-04-25T14:51:58.674Z,23.3
2018-04-25T14:52:48.875Z,23.3
2018-04-25T14:53:38.965Z,23.3
2018-04-25T14:54:28.968Z,23.4
2018-04-25T14:55:18.539Z,23.3
2018-04-25T14:56:08.377Z,23.3
2018-04-25T14:56:59.484Z,23.3
2018-04-25T14:57:48.718Z,23.3
2018-04-25T14:58:37.965Z,23.3
2018-04-25T14:59:29.159Z,23.3
2018-04-25T15:00:19.495Z,23.3
2018-04-25T15:01:08.041Z,23.3
2018-04-25T15:01:59.022Z,23.3
2018-04-25T15:02:48.171Z,23.3
2018-04-25T15:03:37.272Z,23.3
2018-04-25T15:04:27.702Z,23.3
2018-04-25T15:05:17.405Z,23.3
2018-04-25T15:06:09.133Z,23.3
2018-04-25T15:06:59.719Z,23.3
2018-04-25T15:07:50.444Z,23.3
2018-04-25T15:08:39.846Z,23.4
2018-04-25T15:09:30.226Z,23.3
2018-04-25T15:10:20.229Z,23.4
2018-04-25T15:11:10.641Z,23.3
2018-04-25T15:11:59.841Z,23.3
2018-04-25T15:12:49.626Z,23.3
2018-04-25T15:13:39.360Z,23.3
2018-04-25T15:14:30.868Z,23.3
2018-04-25T15:15:20.453Z,23.3
2018-04-25T15:16:09.925Z,23.3
2018-04-25T15:16:59.651Z,23.3
2018-04-25T15:17:50.091Z,23.3
2018-04-25T15:18:40.399Z,23.3
2018-04-25T15:19:30.391Z,23.3
2018-04-25T15:20:20.767Z,23.4
2018-04-25T15:21:10.484Z,23.3
2018-04-25T15:22:01.104Z,23.3
2018-04-25T15:22:50.892Z,23.3
2018-04-25T15:23:41.512Z,23.4
2018-04-25T15:24:30.802Z,23.3
2018-04-25T15:25:21.558Z,23.3
2018-04-25T15:26:09.802Z,23.3
2018-04-25T15:27:00.141Z,23.4
2018-04-25T15:27:50.261Z,23.3
2018-04-25T15:28:41.073Z,23.3
2018-04-25T15:29:31.460Z,23.3
2018-04-25T15:30:20.943Z,23.4
2018-04-25T15:31:11.926Z,23.4
2018-04-25T15:32:01.931Z,23.3
2018-04-25T15:32:50.628Z,23.4
2018-04-25T15:33:41.509Z,23.3
2018-04-25T15:34:30.763Z,23.3
2018-04-25T15:35:21.331Z,23.4
2018-04-25T15:36:12.005Z,23.4
2018-04-25T15:37:01.572Z,23.3
2018-04-25T15:37:52.758Z,23.4
2018-04-25T15:38:41.896Z,23.4
2018-04-25T15:39:31.439Z,23.4
2018-04-25T15:40:21.766Z,23.3
2018-04-25T15:41:12.170Z,23.3
2018-04-25T15:42:01.602Z,23.4
2018-04-25T15:42:52.957Z,23.4
2018-04-25T15:43:42.921Z,23.4
2018-04-25T15:44:31.831Z,23.4
2018-04-25T15:45:22.120Z,23.3
2018-04-25T15:46:13.099Z,23.3
2018-04-25T15:47:03.085Z,23.4
2018-04-25T15:47:52.713Z,23.4
2018-04-25T15:48:43.533Z,23.4
2018-04-25T15:49:33.559Z,23.4
2018-04-25T15:50:23.371Z,23.4
2018-04-25T15:51:13.731Z,23.4
2018-04-25T15:52:03.507Z,23.4
2018-04-25T15:52:53.266Z,23.4
2018-04-25T15:53:43.015Z,23.4
2018-04-25T15:54:33.709Z,23.4
2018-04-25T15:55:23.735Z,23.4
2018-04-25T15:56:13.475Z,23.4
2018-04-25T15:57:02.995Z,23.4
2018-04-25T15:57:53.962Z,23.4
2018-04-25T15:58:43.788Z,23.4
2018-04-25T15:59:33.820Z,23.4
2018-04-25T16:00:23.845Z,23.4
2018-04-25T16:01:14.470Z,23.4
2018-04-25T16:02:03.690Z,23.4
2018-04-25T16:02:54.622Z,23.4
2018-04-25T16:03:44.368Z,23.4
2018-04-25T16:04:33.939Z,23.4
2018-04-25T16:05:24.462Z,23.4
2018-04-25T16:06:14.644Z,23.4
2018-04-25T16:07:03.280Z,23.4
2018-04-25T16:07:54.721Z,23.4
2018-04-25T16:08:43.662Z,23.4
2018-04-25T16:09:34.312Z,23.4
2018-04-25T16:10:24.780Z,23.4
2018-04-25T16:11:14.755Z,23.4
2018-04-25T16:12:04.438Z,23.4
2018-04-25T16:12:54.398Z,23.4
2018-04-25T16:13:44.924Z,23.4
2018-04-25T16:14:35.248Z,23.4
2018-04-25T16:15:25.156Z,23.4
2018-04-25T16:16:14.394Z,23.4
2018-04-25T16:17:06.404Z,23.4
2018-04-25T16:17:55.226Z,23.4
2018-04-25T16:18:44.765Z,23.4
2018-04-25T16:19:34.805Z,23.4
2018-04-25T16:20:26.057Z,23.4
2018-04-25T16:21:16.858Z,23.4
2018-04-25T16:22:04.467Z,23.4
2018-04-25T16:22:57.157Z,23.4
2018-04-25T16:23:45.403Z,23.4
2018-04-25T16:24:34.923Z,23.4
2018-04-25T16:25:26.437Z,23.4
2018-04-25T16:26:14.826Z,23.4
2018-04-25T16:27:05.648Z,23.4
2018-04-25T16:27:56.609Z,23.4
2018-04-25T16:28:45.856Z,23.4
2018-04-25T16:29:36.697Z,23.4
2018-04-25T16:30:26.232Z,23.4
2018-04-25T16:31:16.629Z,23.4
2018-04-25T16:32:06.596Z,23.4
2018-04-25T16:32:55.792Z,23.4
2018-04-25T16:33:47.098Z,23.4
2018-04-25T16:34:36.275Z,23.4
2018-04-25T16:35:26.405Z,23.4
2018-04-25T16:36:17.430Z,23.4
2018-04-25T16:37:06.816Z,23.4
2018-04-25T16:37:57.002Z,23.5
2018-04-25T16:38:47.668Z,23.4
2018-04-25T16:39:37.187Z,23.4
2018-04-25T16:40:27.195Z,23.5
2018-04-25T16:41:16.979Z,23.4
2018-04-25T16:42:07.439Z,23.5
2018-04-25T16:42:56.321Z,23.5